Time;durP1;ratioP1;P1;durP2;ratioP2;P2;SDS_P1;SDS_P2;PMS_P1;PMS_P2;Temp;Humidity;BMP_temperature;BMP_pressure;BME280_temperature;BME280_humidity;BME280_pressure;Samples;Min_cycle;Max_cycle;Signal;HPM_P1;HPM_P2
2022/09/11 00:00:50;;;;;;;;;16.67;15.00;;;;;16.92;100.00;101660.09;5077535;28;45651;-76
2022/09/11 00:03:17;;;;;;;;;14.00;13.00;;;;;16.94;100.00;101661.88;5071516;28;47395;-75
2022/09/11 00:05:42;;;;;;;;;14.33;13.33;;;;;16.94;100.00;101656.53;5077738;28;45606;-76
2022/09/11 00:08:13;;;;;;;;;14.67;13.00;;;;;16.97;100.00;101653.84;5078123;28;45488;-76
2022/09/11 00:10:40;;;;;;;;;16.67;14.00;;;;;16.99;100.00;101652.06;5077562;28;45521;-76
2022/09/11 00:13:06;;;;;;;;;16.67;15.00;;;;;16.97;100.00;101651.19;5077830;28;47497;-76
2022/09/11 00:15:40;;;;;;;;;19.00;15.00;;;;;16.98;100.00;101655.59;5078024;28;45405;-75
2022/09/11 00:18:06;;;;;;;;;13.67;12.00;;;;;16.96;100.00;101651.19;5077003;28;45497;-75
2022/09/11 00:20:32;;;;;;;;;13.67;13.67;;;;;16.95;100.00;101650.31;5078339;28;45426;-75
2022/09/11 00:23:00;;;;;;;;;13.00;13.00;;;;;16.93;100.00;101651.19;5077198;28;46472;-76
2022/09/11 00:25:26;;;;;;;;;14.00;14.00;;;;;16.92;100.00;101647.63;5075801;28;45486;-76
2022/09/11 00:27:52;;;;;;;;;14.00;14.00;;;;;16.91;100.00;101645.84;5076210;28;45617;-76
2022/09/11 00:30:17;;;;;;;;;14.67;13.00;;;;;16.90;100.00;101648.53;5077329;28;56055;-76
2022/09/11 00:32:42;;;;;;;;;15.00;13.00;;;;;16.87;100.00;101649.41;5076652;28;69182;-76
2022/09/11 00:35:08;;;;;;;;;14.33;13.00;;;;;16.85;100.00;101645.00;5076249;28;68149;-76
2022/09/11 00:37:33;;;;;;;;;12.00;12.00;;;;;16.83;100.00;101647.66;5075792;28;60011;-75
2022/09/11 00:39:59;;;;;;;;;13.00;11.33;;;;;16.84;100.00;101648.56;5077512;28;45507;-76
2022/09/11 00:42:24;;;;;;;;;14.00;14.00;;;;;16.81;100.00;101657.44;5077224;28;46601;-76
2022/09/11 00:44:49;;;;;;;;;11.67;11.67;;;;;16.80;100.00;101649.44;5059420;28;57852;-76
2022/09/11 00:47:17;;;;;;;;;16.33;14.33;;;;;16.75;100.00;101641.44;5077029;28;45469;-76
2022/09/11 00:49:47;;;;;;;;;16.67;14.00;;;;;16.74;100.00;101643.22;5058588;28;45420;-75
2022/09/11 00:52:21;;;;;;;;;13.00;13.00;;;;;16.72;100.00;101637.00;5077004;28;46792;-76
2022/09/11 00:54:52;;;;;;;;;14.67;12.00;;;;;16.70;100.00;101635.19;5075458;28;45439;-76
2022/09/11 00:57:22;;;;;;;;;15.00;13.00;;;;;16.69;100.00;101636.97;5050111;28;45450;-76
2022/09/11 00:59:49;;;;;;;;;16.00;13.00;;;;;16.68;100.00;101639.66;5077164;28;45481;-76
2022/09/11 01:02:16;;;;;;;;;15.33;13.67;;;;;16.66;100.00;101638.75;5033840;28;46453;-75
2022/09/11 01:04:42;;;;;;;;;8.67;8.67;;;;;16.62;100.00;101628.97;5058958;28;45374;-76
2022/09/11 01:07:09;;;;;;;;;15.67;14.67;;;;;16.63;100.00;101631.66;5076769;28;58560;-76
2022/09/11 01:09:34;;;;;;;;;16.33;15.00;;;;;16.59;100.00;101629.88;5076810;28;45387;-76
2022/09/11 01:12:31;;;;;;;;;17.00;15.00;;;;;16.58;100.00;101628.09;5077060;28;47421;-77
2022/09/11 01:15:04;;;;;;;;;14.33;13.00;;;;;16.58;100.00;101628.09;5051849;28;45450;-76
2022/09/11 01:17:47;;;;;;;;;17.00;15.33;;;;;16.57;100.00;101631.66;5046788;28;45379;-76
2022/09/11 01:20:35;;;;;;;;;16.67;14.67;;;;;16.55;100.00;101628.09;5048520;28;45503;-75
2022/09/11 01:23:06;;;;;;;;;16.67;16.67;;;;;16.53;100.00;101619.22;5056652;28;47043;-76
2022/09/11 01:25:50;;;;;;;;;16.67;14.00;;;;;16.54;100.00;101621.00;5056044;28;45542;-76
2022/09/11 01:28:19;;;;;;;;;17.33;15.00;;;;;16.52;100.00;101614.78;5050066;28;45525;-76
2022/09/11 01:30:49;;;;;;;;;14.33;13.00;;;;;16.52;100.00;101611.22;5038702;28;45500;-75
2022/09/11 01:33:23;;;;;;;;;16.00;14.33;;;;;16.48;100.00;101616.56;5035363;28;48473;-75
2022/09/11 01:35:56;;;;;;;;;17.00;13.67;;;;;16.50;100.00;101614.75;5056006;28;45225;-76
2022/09/11 01:38:24;;;;;;;;;14.33;14.33;;;;;16.49;100.00;101623.66;5032023;28;45333;-75
2022/09/11 01:40:56;;;;;;;;;11.67;11.67;;;;;16.48;100.00;101619.22;5055768;28;45546;-75
2022/09/11 01:43:25;;;;;;;;;13.67;13.67;;;;;16.46;100.00;101620.13;5038675;28;47578;-76
2022/09/11 01:45:51;;;;;;;;;14.00;14.00;;;;;16.45;100.00;101618.31;5038156;28;45595;-76
2022/09/11 01:48:20;;;;;;;;;14.00;13.00;;;;;16.42;100.00;101616.56;5055299;28;45376;-76
2022/09/11 01:50:47;;;;;;;;;14.33;14.33;;;;;16.42;100.00;101618.34;5055917;28;45782;-76
2022/09/11 01:53:16;;;;;;;;;14.33;14.33;;;;;16.41;100.00;101617.47;5036452;28;47117;-75
2022/09/11 01:55:44;;;;;;;;;17.00;17.00;;;;;16.40;100.00;101617.44;5034815;28;45467;-76
2022/09/11 01:58:14;;;;;;;;;15.67;15.33;;;;;16.38;100.00;101617.44;5037510;28;45285;-77
2022/09/11 02:00:43;;;;;;;;;16.33;13.67;;;;;16.38;100.00;101611.22;5038289;28;45392;-76
2022/09/11 02:03:30;;;;;;;;;16.00;16.00;;;;;16.38;100.00;101613.88;5037468;28;46954;-76
2022/09/11 02:05:59;;;;;;;;;18.00;15.00;;;;;16.35;100.00;101619.22;5007814;28;45511;-75
2022/09/11 02:08:40;;;;;;;;;13.33;13.33;;;;;16.36;100.00;101615.69;5047540;28;45411;-76
2022/09/11 02:11:08;;;;;;;;;15.00;15.00;;;;;16.34;100.00;101607.66;5037469;28;45710;-76
2022/09/11 02:13:41;;;;;;;;;18.00;17.00;;;;;16.33;100.00;101615.66;5055889;28;47498;-76
2022/09/11 02:16:34;;;;;;;;;15.33;15.33;;;;;16.32;100.00;101612.13;5059831;28;45313;-76
2022/09/11 02:19:04;;;;;;;;;14.67;14.00;;;;;16.31;100.00;101613.00;5075666;28;45562;-76
2022/09/11 02:21:31;;;;;;;;;16.33;16.33;;;;;16.30;100.00;101610.31;5075868;28;45596;-75
2022/09/11 02:23:56;;;;;;;;;16.33;14.67;;;;;16.27;100.00;101607.69;5075273;28;47554;-75
2022/09/11 02:26:24;;;;;;;;;15.00;12.00;;;;;16.27;100.00;101616.56;5075048;28;45292;-75
2022/09/11 02:28:50;;;;;;;;;13.00;13.00;;;;;16.23;100.00;101604.13;5075814;28;45585;-76
2022/09/11 02:31:17;;;;;;;;;17.00;16.33;;;;;16.21;100.00;101603.25;5076029;28;45449;-76
2022/09/11 02:33:43;;;;;;;;;18.33;15.00;;;;;16.20;100.00;101618.34;5067114;28;46891;-75
2022/09/11 02:36:23;;;;;;;;;15.33;13.67;;;;;16.20;100.00;101621.00;5075629;28;45482;-76
2022/09/11 02:39:00;;;;;;;;;14.00;13.00;;;;;16.19;100.00;101615.66;5057074;28;45474;-76
2022/09/11 02:41:42;;;;;;;;;18.33;18.33;;;;;16.16;100.00;101616.56;5075731;28;45443;-76
2022/09/11 02:44:20;;;;;;;;;16.00;14.00;;;;;16.16;100.00;101618.34;5054034;28;47453;-76
2022/09/11 02:46:48;;;;;;;;;14.67;12.67;;;;;16.12;100.00;101612.09;5074185;28;45597;-75
2022/09/11 02:49:29;;;;;;;;;15.00;13.33;;;;;16.11;100.00;101615.66;5075845;28;45358;-75
2022/09/11 02:52:19;;;;;;;;;15.33;15.00;;;;;16.10;100.00;101605.00;5057325;28;45274;-75
2022/09/11 02:54:59;;;;;;;;;12.33;12.33;;;;;16.10;100.00;101618.34;5074690;28;46951;-76
2022/09/11 02:57:31;;;;;;;;;15.00;15.00;;;;;16.08;100.00;101620.09;5057098;28;45417;-75
2022/09/11 02:59:59;;;;;;;;;11.00;11.00;;;;;16.09;100.00;101619.22;5060381;28;45490;-76
2022/09/11 03:02:28;;;;;;;;;12.67;12.67;;;;;16.06;100.00;101617.44;5072778;28;45631;-76
2022/09/11 03:04:53;;;;;;;;;15.33;13.67;;;;;16.04;100.00;101621.88;5059983;28;47531;-76
2022/09/11 03:07:18;;;;;;;;;16.00;13.00;;;;;16.04;100.00;101621.00;5078832;28;53668;-77
2022/09/11 03:09:44;;;;;;;;;13.00;13.00;;;;;16.04;100.00;101613.00;5060407;28;52250;-76
2022/09/11 03:12:09;;;;;;;;;15.67;13.67;;;;;16.00;100.00;101608.56;5077859;28;59445;-76
2022/09/11 03:14:36;;;;;;;;;18.00;16.00;;;;;15.98;100.00;101609.44;5078736;28;46366;-75
2022/09/11 03:17:01;;;;;;;;;15.67;15.67;;;;;15.98;100.00;101611.22;5077639;28;45556;-76
2022/09/11 03:19:27;;;;;;;;;16.00;14.67;;;;;15.97;100.00;101614.75;5078231;28;62174;-76
2022/09/11 03:21:52;;;;;;;;;14.33;14.33;;;;;15.98;100.00;101608.56;5078587;28;45417;-76
2022/09/11 03:24:18;;;;;;;;;13.33;13.33;;;;;15.96;100.00;101616.53;5078288;28;47016;-76
2022/09/11 03:26:43;;;;;;;;;13.00;13.00;;;;;15.95;100.00;101621.88;5078408;28;53282;-76
2022/09/11 03:29:09;;;;;;;;;14.00;14.00;;;;;15.95;100.00;101620.09;5078169;28;45494;-75
2022/09/11 03:31:34;;;;;;;;;15.67;15.67;;;;;15.93;100.00;101610.31;5078020;28;60906;-76
2022/09/11 03:33:59;;;;;;;;;13.67;13.67;;;;;15.94;100.00;101617.44;5078429;28;48718;-76
2022/09/11 03:36:25;;;;;;;;;14.33;14.33;;;;;15.93;100.00;101624.53;5074106;28;62115;-76
2022/09/11 03:38:51;;;;;;;;;19.00;16.00;;;;;15.91;100.00;101615.63;5077954;28;59771;-76
2022/09/11 03:41:17;;;;;;;;;18.67;12.67;;;;;15.91;100.00;101615.63;5078005;28;45406;-76
2022/09/11 03:43:42;;;;;;;;;16.33;15.67;;;;;15.88;100.00;101606.78;5077789;28;46472;-77
2022/09/11 03:46:07;;;;;;;;;15.33;15.33;;;;;15.92;100.00;101619.19;5078440;27;45414;-75
2022/09/11 03:48:33;;;;;;;;;16.00;16.00;;;;;15.90;100.00;101611.19;5078226;28;46272;-76
2022/09/11 03:50:58;;;;;;;;;15.00;15.00;;;;;15.90;100.00;101612.97;5078682;28;47400;-76
2022/09/11 03:53:25;;;;;;;;;19.33;18.00;;;;;15.88;100.00;101615.66;5078164;28;47174;-75
2022/09/11 03:55:50;;;;;;;;;17.00;17.00;;;;;15.88;100.00;101610.31;5074708;28;45320;-76
2022/09/11 03:58:18;;;;;;;;;18.25;17.25;;;;;15.88;100.00;101612.09;5077700;28;60357;-75
2022/09/11 04:00:44;;;;;;;;;22.67;19.00;;;;;15.91;100.00;101620.06;5077824;28;45307;-76
2022/09/11 04:03:10;;;;;;;;;17.33;15.00;;;;;15.92;100.00;101620.06;5077703;28;47488;-76
2022/09/11 04:05:37;;;;;;;;;23.33;20.67;;;;;15.94;100.00;101606.78;5077789;28;45270;-75
2022/09/11 04:08:02;;;;;;;;;20.33;17.67;;;;;15.95;100.00;101606.75;5078216;28;45370;-75
2022/09/11 04:10:28;;;;;;;;;20.00;20.00;;;;;15.97;100.00;101604.09;5069629;28;45562;-77
2022/09/11 04:12:53;;;;;;;;;23.00;17.67;;;;;16.00;100.00;101603.22;5075760;28;60929;-74
2022/09/11 04:15:18;;;;;;;;;22.67;19.67;;;;;16.05;100.00;101609.44;5077591;28;56857;-75
2022/09/11 04:17:44;;;;;;;;;34.00;25.67;;;;;16.09;100.00;101616.56;5074398;28;63203;-76
2022/09/11 04:20:10;;;;;;;;;24.67;20.33;;;;;16.11;100.00;101614.78;5075166;28;45708;-75
2022/09/11 04:22:35;;;;;;;;;50.75;27.50;;;;;16.13;100.00;101594.34;5076058;28;46001;-75
2022/09/11 04:25:01;;;;;;;;;32.00;22.00;;;;;16.16;100.00;101605.00;5076783;28;45632;-74
2022/09/11 04:27:26;;;;;;;;;23.33;18.67;;;;;16.18;100.00;101612.09;5075758;28;45402;-74
2022/09/11 04:29:52;;;;;;;;;23.00;20.00;;;;;16.21;100.00;101609.44;5077001;28;45536;-75
2022/09/11 04:32:17;;;;;;;;;23.00;20.67;;;;;16.25;100.00;101613.03;5077791;28;47254;-75
2022/09/11 04:34:42;;;;;;;;;21.33;18.33;;;;;16.30;100.00;101613.00;5076521;28;45553;-78
2022/09/11 04:37:08;;;;;;;;;25.67;20.33;;;;;16.32;100.00;101617.44;5075543;28;53241;-76
2022/09/11 04:39:34;;;;;;;;;22.33;21.67;;;;;16.34;100.00;101609.44;5076700;28;45718;-77
2022/09/11 04:42:00;;;;;;;;;25.67;20.33;;;;;16.37;100.00;101620.13;5075969;28;47474;-75
2022/09/11 04:44:27;;;;;;;;;22.67;20.00;;;;;16.37;100.00;101621.00;5064841;28;45581;-75
2022/09/11 04:46:52;;;;;;;;;24.33;21.67;;;;;16.36;100.00;101626.34;5075587;28;45545;-74
2022/09/11 04:49:17;;;;;;;;;21.33;21.00;;;;;16.40;100.00;101622.75;5073546;28;58339;-78
2022/09/11 04:51:44;;;;;;;;;23.00;21.00;;;;;16.40;100.00;101623.66;5074258;28;66642;-80
2022/09/11 04:54:13;;;;;;;;;23.00;21.67;;;;;16.43;100.00;101622.78;5073506;28;45431;-81
2022/09/11 04:56:38;;;;;;;;;27.00;19.67;;;;;16.43;100.00;101622.78;5076641;28;45429;-78
2022/09/11 04:59:08;;;;;;;;;26.00;22.00;;;;;16.44;100.00;101628.09;5076836;28;45788;-82
2022/09/11 05:01:34;;;;;;;;;27.50;24.25;;;;;16.43;100.00;101630.78;5056419;28;46557;-79
2022/09/11 05:04:00;;;;;;;;;22.33;21.67;;;;;16.44;100.00;101637.88;5074319;28;45406;-76
2022/09/11 05:06:26;;;;;;;;;31.67;19.00;;;;;16.41;100.00;101644.09;5076859;28;45419;-80
2022/09/11 05:08:52;;;;;;;;;30.67;22.67;;;;;16.37;100.00;101647.66;5076884;28;45500;-78
2022/09/11 05:11:19;;;;;;;;;22.67;18.67;;;;;16.32;100.00;101646.75;5075467;28;70544;-80
2022/09/11 05:13:45;;;;;;;;;24.00;16.33;;;;;16.30;100.00;101640.56;5074318;28;45288;-77
2022/09/11 05:16:12;;;;;;;;;23.33;19.33;;;;;16.28;100.00;101646.75;5058375;28;45580;-78
2022/09/11 05:18:39;;;;;;;;;23.00;19.67;;;;;16.27;100.00;101650.31;5058961;28;45547;-77
2022/09/11 05:21:07;;;;;;;;;21.33;18.67;;;;;16.26;100.00;101643.22;5075518;28;45694;-81
2022/09/11 05:23:33;;;;;;;;;19.33;19.33;;;;;16.30;100.00;101656.56;5057143;28;45575;-78
2022/09/11 05:26:00;;;;;;;;;21.33;16.33;;;;;16.28;100.00;101649.41;5054923;28;45336;-77
2022/09/11 05:28:26;;;;;;;;;28.67;18.67;;;;;16.24;100.00;101657.44;5057315;28;46824;-79
2022/09/11 05:30:53;;;;;;;;;28.33;19.33;;;;;16.22;100.00;101651.19;5060434;28;48281;-78
2022/09/11 05:33:19;;;;;;;;;20.00;15.67;;;;;16.24;100.00;101649.44;5072203;28;45769;-77
2022/09/11 05:35:45;;;;;;;;;23.33;16.00;;;;;16.22;100.00;101661.84;5063340;27;46271;-80
2022/09/11 05:38:11;;;;;;;;;25.00;20.00;;;;;16.24;100.00;101668.09;5074277;28;47460;-80
2022/09/11 05:40:37;;;;;;;;;19.00;16.00;;;;;16.22;100.00;101659.19;5072788;28;46530;-80
2022/09/11 05:43:03;;;;;;;;;24.00;17.00;;;;;16.25;100.00;101663.66;5054235;28;45426;-80
2022/09/11 05:45:28;;;;;;;;;29.67;17.00;;;;;16.23;100.00;101652.06;5074950;28;53211;-78
2022/09/11 05:47:53;;;;;;;;;26.00;18.67;;;;;16.30;100.00;101671.63;5071213;27;60791;-80
2022/09/11 05:50:20;;;;;;;;;24.67;17.33;;;;;16.31;100.00;101663.66;5072564;28;46219;-77
2022/09/11 05:52:46;;;;;;;;;9.00;6.33;;;;;16.30;100.00;101677.88;5075582;28;45824;-76
2022/09/11 05:55:11;;;;;;;;;19.67;14.67;;;;;16.25;100.00;101676.97;5072927;28;45418;-78
2022/09/11 05:57:36;;;;;;;;;22.00;17.00;;;;;16.20;100.00;101676.97;5074362;28;45741;-76
2022/09/11 06:00:03;;;;;;;;;20.33;14.00;;;;;16.17;100.00;101676.94;5075022;28;62885;-77
2022/09/11 06:02:29;;;;;;;;;22.67;15.33;;;;;16.13;100.00;101688.47;5073426;28;45474;-79
2022/09/11 06:04:55;;;;;;;;;22.00;19.00;;;;;16.13;100.00;101683.16;5070581;28;45718;-76
2022/09/11 06:07:20;;;;;;;;;25.00;16.33;;;;;16.13;100.00;101682.25;5072310;28;45532;-77
2022/09/11 06:09:46;;;;;;;;;23.00;16.00;;;;;16.19;100.00;101683.19;5071431;28;46217;-76
2022/09/11 06:12:11;;;;;;;;;20.00;17.67;;;;;16.23;100.00;101686.72;5040468;28;49234;-76
2022/09/11 06:14:37;;;;;;;;;22.33;17.00;;;;;16.27;100.00;101690.28;5072185;28;45511;-77
2022/09/11 06:17:02;;;;;;;;;20.00;18.33;;;;;16.27;100.00;101695.63;5061928;28;45621;-76
2022/09/11 06:19:28;;;;;;;;;21.00;17.00;;;;;16.23;100.00;101684.94;5036641;28;47989;-75
2022/09/11 06:21:55;;;;;;;;;25.33;16.00;;;;;16.22;100.00;101691.16;5053784;28;45415;-76
2022/09/11 06:24:20;;;;;;;;;22.67;17.00;;;;;16.20;100.00;101684.97;5032690;28;45663;-76
2022/09/11 06:26:45;;;;;;;;;22.33;18.00;;;;;16.26;100.00;101691.19;5046934;28;63648;-76
2022/09/11 06:29:13;;;;;;;;;29.33;18.67;;;;;16.28;100.00;101684.06;5052040;28;47336;-76
2022/09/11 06:31:39;;;;;;;;;28.33;19.67;;;;;16.35;100.00;101688.50;5049425;28;45466;-76
2022/09/11 06:34:04;;;;;;;;;21.00;16.33;;;;;16.38;100.00;101694.75;5054631;28;45498;-75
2022/09/11 06:36:30;;;;;;;;;22.00;19.00;;;;;16.42;100.00;101696.53;5038574;28;45595;-75
2022/09/11 06:38:56;;;;;;;;;21.33;16.00;;;;;16.45;100.00;101688.50;5058388;28;46447;-76
2022/09/11 06:41:23;;;;;;;;;21.33;17.67;;;;;16.53;100.00;101692.97;5057926;28;45608;-76
2022/09/11 06:43:49;;;;;;;;;17.67;16.33;;;;;16.55;100.00;101701.84;5058584;28;45560;-75
2022/09/11 06:46:18;;;;;;;;;18.33;15.33;;;;;16.55;100.00;101694.75;5052631;28;45481;-76
2022/09/11 06:48:46;;;;;;;;;16.33;14.33;;;;;16.58;100.00;101692.09;5055815;28;46316;-77
2022/09/11 06:51:16;;;;;;;;;15.67;15.67;;;;;16.60;100.00;101687.63;5055512;28;45482;-76
2022/09/11 06:53:42;;;;;;;;;21.00;15.00;;;;;16.62;100.00;101691.22;5055190;28;45481;-75
2022/09/11 06:56:13;;;;;;;;;19.33;15.67;;;;;16.69;100.00;101689.41;5056221;28;45521;-75
2022/09/11 06:58:39;;;;;;;;;16.00;15.33;;;;;16.70;100.00;101686.75;5056822;28;47818;-77
2022/09/11 07:01:06;;;;;;;;;22.00;16.67;;;;;16.77;100.00;101685.88;5057721;28;45281;-77
2022/09/11 07:03:32;;;;;;;;;24.33;16.67;;;;;16.89;100.00;101686.78;5056622;28;45703;-76
2022/09/11 07:05:58;;;;;;;;;17.67;15.00;;;;;16.93;100.00;101689.41;5057846;28;45355;-75
2022/09/11 07:08:24;;;;;;;;;17.67;15.33;;;;;16.99;100.00;101686.75;5056753;28;47646;-76
2022/09/11 07:10:49;;;;;;;;;16.00;13.33;;;;;17.05;100.00;101687.66;5056913;28;45474;-76
2022/09/11 07:13:14;;;;;;;;;18.33;15.33;;;;;17.08;100.00;101692.97;5054523;28;53012;-76
2022/09/11 07:15:41;;;;;;;;;22.67;17.67;;;;;17.12;100.00;101695.63;5054124;28;60736;-75
2022/09/11 07:18:07;;;;;;;;;25.33;15.00;;;;;17.16;100.00;101693.84;5076425;28;46192;-76
2022/09/11 07:20:32;;;;;;;;;24.33;19.00;;;;;17.20;100.00;101692.91;5073840;28;45494;-76
2022/09/11 07:22:58;;;;;;;;;22.33;17.33;;;;;17.24;100.00;101690.25;5074424;28;45810;-77
2022/09/11 07:25:24;;;;;;;;;20.33;18.33;;;;;17.28;100.00;101689.34;5072216;28;46173;-77
2022/09/11 07:27:50;;;;;;;;;21.00;19.33;;;;;17.33;100.00;101685.78;5073898;28;47893;-76
2022/09/11 07:30:17;;;;;;;;;26.00;20.33;;;;;17.37;100.00;101693.78;5074845;28;45409;-75
2022/09/11 07:32:42;;;;;;;;;19.33;17.67;;;;;17.41;100.00;101697.31;5075227;27;45458;-76
2022/09/11 07:35:08;;;;;;;;;28.33;22.00;;;;;17.46;100.00;101692.84;5077849;28;45727;-75
2022/09/11 07:37:33;;;;;;;;;23.00;23.00;;;;;17.48;100.00;101688.41;5074285;27;46637;-75
2022/09/11 07:39:58;;;;;;;;;21.33;19.00;;;;;17.54;100.00;101696.38;5077192;28;66279;-75
2022/09/11 07:42:24;;;;;;;;;26.67;21.33;;;;;17.55;100.00;101691.03;5076624;28;45407;-75
2022/09/11 07:44:49;;;;;;;;;20.00;19.33;;;;;17.62;100.00;101693.66;5069168;28;45544;-75
2022/09/11 07:47:15;;;;;;;;;20.33;18.33;;;;;17.65;100.00;101686.53;5077956;28;46509;-76
2022/09/11 07:49:40;;;;;;;;;22.67;21.67;;;;;17.72;100.00;101693.66;5077586;28;45444;-75
2022/09/11 07:52:06;;;;;;;;;27.00;23.67;;;;;17.80;100.00;101694.53;5072184;28;61652;-75
2022/09/11 07:54:31;;;;;;;;;32.33;27.00;;;;;17.89;100.00;101690.00;5073770;27;45568;-76
2022/09/11 07:56:57;;;;;;;;;23.67;23.00;;;;;17.99;100.00;101700.63;5074742;28;54957;-76
2022/09/11 07:59:23;;;;;;;;;25.33;25.33;;;;;18.04;100.00;101689.94;5076966;28;45463;-75
2022/09/11 08:01:54;;;;;;;;;21.33;21.33;;;;;18.17;100.00;101690.75;5075168;28;45651;-76
2022/09/11 08:04:20;;;;;;;;;26.33;24.00;;;;;18.22;100.00;101692.50;5076137;28;45621;-77
2022/09/11 08:06:45;;;;;;;;;27.00;26.67;;;;;18.22;100.00;101687.16;5074157;27;46609;-76
2022/09/11 08:09:14;;;;;;;;;30.33;26.00;;;;;18.31;100.00;101696.88;5074225;28;45510;-75
2022/09/11 08:11:44;;;;;;;;;34.00;29.67;;;;;18.35;100.00;101695.06;5075856;28;45541;-76
2022/09/11 08:14:12;;;;;;;;;36.25;29.00;;;;;18.36;100.00;101688.81;5058452;28;45459;-75
2022/09/11 08:16:38;;;;;;;;;32.00;30.33;;;;;18.39;100.00;101688.81;5076053;28;46528;-76
2022/09/11 08:19:04;;;;;;;;;34.25;32.50;;;;;18.48;100.00;101694.06;5074365;28;45777;-75
2022/09/11 08:21:29;;;;;;;;;34.75;32.25;;;;;18.53;100.00;101689.56;5076465;28;45616;-76
2022/09/11 08:23:57;;;;;;;;;35.00;31.50;;;;;18.56;100.00;101684.22;5072318;28;50858;-75
2022/09/11 08:26:27;;;;;;;;;38.25;33.50;;;;;18.61;100.00;101673.47;5075285;28;46724;-76
2022/09/11 08:28:54;;;;;;;;;32.50;31.50;;;;;18.64;100.00;101676.09;5074518;28;45856;-76
2022/09/11 08:31:26;;;;;;;;;34.50;31.75;;;;;18.71;100.00;101681.44;5071480;28;45941;-76
2022/09/11 08:33:53;;;;;;;;;31.50;30.50;;;;;18.73;100.00;101684.97;5053518;28;45450;-76
2022/09/11 08:36:18;;;;;;;;;37.00;33.00;;;;;18.74;100.00;101686.75;5073970;28;46495;-76
2022/09/11 08:38:44;;;;;;;;;42.75;35.00;;;;;18.78;100.00;101696.53;5074844;28;45529;-77
2022/09/11 08:41:28;;;;;;;;;40.50;33.50;;;;;18.87;100.00;101692.00;5075201;27;45520;-77
2022/09/11 08:44:01;;;;;;;;;43.50;35.50;;;;;18.92;100.00;101688.38;5071577;28;45527;-75
2022/09/11 08:46:32;;;;;;;;;43.00;36.75;;;;;19.07;100.00;101701.63;5076734;28;47324;-76
2022/09/11 08:49:13;;;;;;;;;40.50;35.50;;;;;19.16;100.00;101694.38;5076964;28;45920;-77
2022/09/11 08:51:43;;;;;;;;;38.75;33.50;;;;;19.19;100.00;101699.72;5075126;28;45280;-77
2022/09/11 08:54:26;;;;;;;;;44.75;38.50;;;;;19.24;100.00;101695.19;5074097;28;45637;-78
2022/09/11 08:56:53;;;;;;;;;39.50;34.75;;;;;19.27;100.00;101692.47;5074360;28;47987;-75
2022/09/11 08:59:52;;;;;;;;;65.00;52.75;;;;;19.31;100.00;101695.09;5054209;28;45496;-75
2022/09/11 09:02:49;;;;;;;;;61.75;49.75;;;;;19.28;100.00;101695.16;5056188;28;45473;-76
2022/09/11 09:05:52;;;;;;;;;42.00;36.00;;;;;19.25;100.00;101697.84;5057011;28;45681;-76
2022/09/11 09:08:21;;;;;;;;;46.75;38.75;;;;;19.13;100.00;101702.47;5056289;28;47173;-76
2022/09/11 09:10:51;;;;;;;;;45.50;38.00;;;;;19.11;100.00;101702.44;5076616;28;45366;-76
2022/09/11 09:13:31;;;;;;;;;45.75;37.75;;;;;19.04;100.00;101696.28;5074757;28;45529;-76
2022/09/11 09:16:20;;;;;;;;;44.75;38.75;;;;;19.00;100.00;101699.88;5076092;28;46266;-75
2022/09/11 09:18:49;;;;;;;;;49.25;40.50;;;;;18.95;100.00;101693.69;5076039;28;45591;-76
2022/09/11 09:21:23;;;;;;;;;52.50;43.00;;;;;18.96;100.00;101694.56;5057396;28;45722;-77
2022/09/11 09:23:58;;;;;;;;;51.25;41.75;;;;;18.97;100.00;101697.25;5073150;28;45576;-74
2022/09/11 09:26:30;;;;;;;;;49.75;40.75;;;;;18.97;100.00;101696.38;5076528;28;45808;-76
2022/09/11 09:28:58;;;;;;;;;50.75;42.25;;;;;18.97;100.00;101704.41;5073133;28;47995;-75
2022/09/11 09:31:27;;;;;;;;;55.25;46.50;;;;;18.99;100.00;101705.25;5074293;28;46280;-75
2022/09/11 09:34:04;;;;;;;;;48.50;40.00;;;;;19.00;100.00;101699.00;5076191;28;45675;-76
2022/09/11 09:36:32;;;;;;;;;48.00;41.00;;;;;19.04;100.00;101701.63;5074852;28;45432;-75
2022/09/11 09:38:58;;;;;;;;;58.25;47.50;;;;;19.07;100.00;101700.72;5075586;28;47385;-75
2022/09/11 09:41:50;;;;;;;;;50.50;43.25;;;;;19.13;100.00;101706.03;5072823;28;45585;-76
2022/09/11 09:44:24;;;;;;;;;48.25;40.50;;;;;19.16;100.00;101700.63;5071784;28;45632;-75
2022/09/11 09:46:54;;;;;;;;;54.75;44.50;;;;;19.22;100.00;101691.63;5075738;28;45326;-75
2022/09/11 09:49:24;;;;;;;;;45.25;39.25;;;;;19.28;100.00;101694.22;5056515;28;47287;-75
2022/09/11 09:51:50;;;;;;;;;45.50;38.75;;;;;19.27;100.00;101682.63;5073188;28;45450;-74
2022/09/11 09:54:18;;;;;;;;;48.50;41.50;;;;;19.37;100.00;101689.66;5036319;28;45518;-75
2022/09/11 09:56:52;;;;;;;;;51.25;40.25;;;;;19.43;100.00;101695.84;5053914;28;45600;-77
2022/09/11 09:59:22;;;;;;;;;46.75;39.00;;;;;19.44;100.00;101687.81;5075902;28;47583;-76
2022/09/11 10:01:51;;;;;;;;;47.75;38.75;;;;;19.47;100.00;101684.22;5057517;28;45556;-78
2022/09/11 10:04:22;;;;;;;;;43.75;36.25;;;;;19.52;100.00;101682.38;5054285;28;45407;-76
2022/09/11 10:06:50;;;;;;;;;38.50;35.00;;;;;19.61;100.00;101684.97;5072736;28;45645;-75
2022/09/11 10:09:27;;;;;;;;;32.33;31.00;;;;;19.70;100.00;101686.63;5067239;28;46558;-75
2022/09/11 10:12:04;;;;;;;;;31.00;31.00;;;;;19.83;100.00;101683.78;5050495;28;45620;-75
2022/09/11 10:14:33;;;;;;;;;26.00;25.33;;;;;19.96;100.00;101679.13;5053912;28;46849;-75
2022/09/11 10:17:00;;;;;;;;;24.33;22.00;;;;;20.08;100.00;101678.03;5157891;22;45896;-75
2022/09/11 10:19:40;;;;;;;;;16.33;14.00;;;;;20.20;100.00;101675.19;5044059;28;46569;-75
2022/09/11 10:22:29;;;;;;;;;15.33;14.33;;;;;20.30;100.00;101676.84;5055808;28;45423;-75
2022/09/11 10:28:30;;;;;;;;;14.67;13.00;;;;;20.44;100.00;101670.34;5063293;28;45529;-77
2022/09/11 10:31:01;;;;;;;;;11.33;11.33;;;;;20.48;100.00;101667.63;5052311;28;47206;-75
2022/09/11 10:33:33;;;;;;;;;13.67;11.67;;;;;20.52;100.00;101663.97;5071758;27;45432;-75
2022/09/11 10:36:00;;;;;;;;;13.33;11.00;;;;;20.58;100.00;101669.25;5071036;28;45458;-75
2022/09/11 10:38:45;;;;;;;;;11.67;11.67;;;;;20.59;100.00;101656.72;5072046;28;45648;-76
2022/09/11 10:41:13;;;;;;;;;16.00;14.33;;;;;20.57;100.00;101662.09;5057168;28;47345;-76
2022/09/11 10:43:46;;;;;;;;;12.00;12.00;;;;;20.61;100.00;101662.91;5064684;28;45405;-75
2022/09/11 10:46:23;;;;;;;;;12.00;11.00;;;;;20.64;100.00;101652.16;5072727;28;45342;-76
2022/09/11 10:48:54;;;;;;;;;13.33;12.67;;;;;20.68;100.00;101659.25;5074717;28;45158;-75
2022/09/11 10:51:21;;;;;;;;;11.00;9.67;;;;;20.73;100.00;101651.09;5074500;28;47612;-75
2022/09/11 10:54:15;;;;;;;;;13.33;13.33;;;;;20.78;100.00;101652.78;5074940;28;45402;-76
2022/09/11 10:57:15;;;;;;;;;13.67;11.33;;;;;20.83;100.00;101647.34;5073154;28;45363;-76
2022/09/11 10:59:44;;;;;;;;;10.00;9.67;;;;;20.86;100.00;101644.59;5064367;28;45578;-75
2022/09/11 11:02:30;;;;;;;;;10.67;10.67;;;;;20.90;100.00;101632.88;5058806;28;47854;-75
2022/09/11 11:04:59;;;;;;;;;8.33;8.33;;;;;20.91;100.00;101632.84;5073165;28;45725;-76
2022/09/11 11:07:57;;;;;;;;;11.00;11.00;;;;;20.97;100.00;101628.28;5052420;28;45575;-77
2022/09/11 11:10:50;;;;;;;;;9.33;9.00;;;;;21.00;100.00;101625.53;5045082;28;45475;-77
2022/09/11 11:13:21;;;;;;;;;10.33;10.33;;;;;21.08;100.00;101628.94;5073833;28;46726;-76
2022/09/11 11:15:49;;;;;;;;;11.67;9.00;;;;;21.13;100.00;101622.56;5074975;28;45509;-76